sensor_id;sensor_type;location;lat;lon;timestamp;temperature;humidity
18733;DHT22;9495;51.210;2.934;2022-12-18T00:00:07;-2.80;99.90
18733;DHT22;9495;51.210;2.934;2022-12-18T00:02:35;-2.80;99.90
18733;DHT22;9495;51.210;2.934;2022-12-18T00:05:05;-2.90;99.90
18733;DHT22;9495;51.210;2.934;2022-12-18T00:07:35;-2.90;99.90
18733;DHT22;9495;51.210;2.934;2022-12-18T00:10:04;-2.90;99.90
18733;DHT22;9495;51.210;2.934;2022-12-18T00:12:33;-2.90;99.90
18733;DHT22;9495;51.210;2.934;2022-12-18T00:15:02;-2.90;99.90
18733;DHT22;9495;51.210;2.934;2022-12-18T00:17:30;-3.00;99.90
18733;DHT22;9495;51.210;2.934;2022-12-18T00:19:59;-3.00;99.90
18733;DHT22;9495;51.210;2.934;2022-12-18T00:22:27;-3.00;99.90
18733;DHT22;9495;51.210;2.934;2022-12-18T00:24:57;-3.00;99.90
18733;DHT22;9495;51.210;2.934;2022-12-18T00:27:26;-2.90;99.90
18733;DHT22;9495;51.210;2.934;2022-12-18T00:29:54;-3.00;99.90
18733;DHT22;9495;51.210;2.934;2022-12-18T00:32:23;-2.90;99.90
18733;DHT22;9495;51.210;2.934;2022-12-18T00:34:51;-2.90;99.90
18733;DHT22;9495;51.210;2.934;2022-12-18T00:37:21;-2.90;99.90
18733;DHT22;9495;51.210;2.934;2022-12-18T00:39:49;-3.00;99.90
18733;DHT22;9495;51.210;2.934;2022-12-18T00:42:20;-3.00;99.90
18733;DHT22;9495;51.210;2.934;2022-12-18T00:45:06;-3.00;99.90
18733;DHT22;9495;51.210;2.934;2022-12-18T00:47:39;-3.00;99.90
18733;DHT22;9495;51.210;2.934;2022-12-18T00:50:08;-3.00;99.90
18733;DHT22;9495;51.210;2.934;2022-12-18T00:52:37;-3.00;99.90
18733;DHT22;9495;51.210;2.934;2022-12-18T00:55:06;-3.00;99.90
18733;DHT22;9495;51.210;2.934;2022-12-18T00:57:36;-3.00;99.90
18733;DHT22;9495;51.210;2.934;2022-12-18T01:00:09;-2.90;99.90
18733;DHT22;9495;51.210;2.934;2022-12-18T01:02:38;-2.90;99.90
18733;DHT22;9495;51.210;2.934;2022-12-18T01:05:08;-2.80;99.90
18733;DHT22;9495;51.210;2.934;2022-12-18T01:07:36;-2.80;99.90
18733;DHT22;9495;51.210;2.934;2022-12-18T01:10:06;-2.80;99.90
18733;DHT22;9495;51.210;2.934;2022-12-18T01:12:36;-2.80;99.90
18733;DHT22;9495;51.210;2.934;2022-12-18T01:15:06;-2.70;99.90
18733;DHT22;9495;51.210;2.934;2022-12-18T01:17:34;-2.80;99.90
18733;DHT22;9495;51.210;2.934;2022-12-18T01:20:03;-2.80;99.90
18733;DHT22;9495;51.210;2.934;2022-12-18T01:22:32;-2.90;99.90
18733;DHT22;9495;51.210;2.934;2022-12-18T01:25:01;-2.80;99.90
18733;DHT22;9495;51.210;2.934;2022-12-18T01:27:31;-2.90;99.90
18733;DHT22;9495;51.210;2.934;2022-12-18T01:30:00;-2.90;99.90
18733;DHT22;9495;51.210;2.934;2022-12-18T01:32:29;-2.90;99.90
18733;DHT22;9495;51.210;2.934;2022-12-18T01:34:58;-3.00;99.90
18733;DHT22;9495;51.210;2.934;2022-12-18T01:37:26;-3.00;99.90
18733;DHT22;9495;51.210;2.934;2022-12-18T01:39:55;-3.00;99.90
18733;DHT22;9495;51.210;2.934;2022-12-18T01:42:23;-3.00;99.90
18733;DHT22;9495;51.210;2.934;2022-12-18T01:45:03;-3.00;99.90
18733;DHT22;9495;51.210;2.934;2022-12-18T01:47:38;-3.00;99.90
18733;DHT22;9495;51.210;2.934;2022-12-18T01:50:10;-3.00;99.90
18733;DHT22;9495;51.210;2.934;2022-12-18T01:52:41;-3.00;99.90
18733;DHT22;9495;51.210;2.934;2022-12-18T01:55:11;-3.00;99.90
18733;DHT22;9495;51.210;2.934;2022-12-18T01:57:40;-3.10;99.90
18733;DHT22;9495;51.210;2.934;2022-12-18T02:00:14;-3.00;99.90
18733;DHT22;9495;51.210;2.934;2022-12-18T02:02:44;-3.00;99.90
18733;DHT22;9495;51.210;2.934;2022-12-18T02:05:16;-3.10;99.90
18733;DHT22;9495;51.210;2.934;2022-12-18T02:07:51;-3.10;99.90
18733;DHT22;9495;51.210;2.934;2022-12-18T02:10:26;-3.10;99.90
18733;DHT22;9495;51.210;2.934;2022-12-18T02:13:01;-3.10;99.90
18733;DHT22;9495;51.210;2.934;2022-12-18T02:15:36;-3.10;99.90
18733;DHT22;9495;51.210;2.934;2022-12-18T02:18:10;-3.20;99.90
18733;DHT22;9495;51.210;2.934;2022-12-18T02:20:43;-3.20;99.90
18733;DHT22;9495;51.210;2.934;2022-12-18T02:23:21;-3.10;99.90
18733;DHT22;9495;51.210;2.934;2022-12-18T02:26:04;-3.10;99.90
18733;DHT22;9495;51.210;2.934;2022-12-18T02:28:39;-3.20;99.90
18733;DHT22;9495;51.210;2.934;2022-12-18T02:31:11;-3.20;99.90
18733;DHT22;9495;51.210;2.934;2022-12-18T02:33:44;-3.20;99.90
18733;DHT22;9495;51.210;2.934;2022-12-18T02:36:13;-3.20;99.90
18733;DHT22;9495;51.210;2.934;2022-12-18T02:38:44;-3.20;99.90
18733;DHT22;9495;51.210;2.934;2022-12-18T02:41:16;-3.20;99.90
18733;DHT22;9495;51.210;2.934;2022-12-18T02:43:49;-3.20;99.90
18733;DHT22;9495;51.210;2.934;2022-12-18T02:46:27;-3.30;99.90
18733;DHT22;9495;51.210;2.934;2022-12-18T02:49:04;-3.30;99.90
18733;DHT22;9495;51.210;2.934;2022-12-18T02:51:40;-3.20;99.90
18733;DHT22;9495;51.210;2.934;2022-12-18T02:57:16;-3.20;99.90
18733;DHT22;9495;51.210;2.934;2022-12-18T02:59:53;-3.20;99.90
18733;DHT22;9495;51.210;2.934;2022-12-18T03:02:26;-3.20;99.90
18733;DHT22;9495;51.210;2.934;2022-12-18T03:05:02;-3.20;99.90
18733;DHT22;9495;51.210;2.934;2022-12-18T03:07:36;-3.10;99.90
18733;DHT22;9495;51.210;2.934;2022-12-18T03:10:08;-3.20;99.90
18733;DHT22;9495;51.210;2.934;2022-12-18T03:12:42;-3.20;99.90
18733;DHT22;9495;51.210;2.934;2022-12-18T03:15:16;-3.20;99.90
18733;DHT22;9495;51.210;2.934;2022-12-18T03:17:49;-3.20;99.90
18733;DHT22;9495;51.210;2.934;2022-12-18T03:20:21;-3.20;99.90
18733;DHT22;9495;51.210;2.934;2022-12-18T03:22:53;-3.20;99.90
18733;DHT22;9495;51.210;2.934;2022-12-18T03:25:26;-3.30;99.90
18733;DHT22;9495;51.210;2.934;2022-12-18T03:27:59;-3.30;99.90
18733;DHT22;9495;51.210;2.934;2022-12-18T03:30:29;-3.30;99.90
18733;DHT22;9495;51.210;2.934;2022-12-18T03:33:05;-3.30;99.90
18733;DHT22;9495;51.210;2.934;2022-12-18T03:35:36;-3.40;99.90
18733;DHT22;9495;51.210;2.934;2022-12-18T03:38:06;-3.40;99.90
18733;DHT22;9495;51.210;2.934;2022-12-18T03:40:41;-3.50;99.90
18733;DHT22;9495;51.210;2.934;2022-12-18T03:43:18;-3.50;99.90
18733;DHT22;9495;51.210;2.934;2022-12-18T03:45:52;-3.50;99.90
18733;DHT22;9495;51.210;2.934;2022-12-18T03:48:29;-3.50;99.90
18733;DHT22;9495;51.210;2.934;2022-12-18T03:51:02;-3.50;99.90
18733;DHT22;9495;51.210;2.934;2022-12-18T03:53:38;-3.50;99.90
18733;DHT22;9495;51.210;2.934;2022-12-18T03:56:08;-3.60;99.90
18733;DHT22;9495;51.210;2.934;2022-12-18T03:58:40;-3.60;99.90
18733;DHT22;9495;51.210;2.934;2022-12-18T04:01:13;-3.60;99.90
18733;DHT22;9495;51.210;2.934;2022-12-18T04:03:44;-3.60;99.90
18733;DHT22;9495;51.210;2.934;2022-12-18T04:06:15;-3.60;99.90
18733;DHT22;9495;51.210;2.934;2022-12-18T04:08:45;-3.70;99.90
18733;DHT22;9495;51.210;2.934;2022-12-18T04:11:13;-3.80;99.90
18733;DHT22;9495;51.210;2.934;2022-12-18T04:13:44;-3.80;99.90
18733;DHT22;9495;51.210;2.934;2022-12-18T04:16:12;-3.80;99.90
18733;DHT22;9495;51.210;2.934;2022-12-18T04:18:41;-3.90;99.90
18733;DHT22;9495;51.210;2.934;2022-12-18T04:21:10;-3.80;99.90
18733;DHT22;9495;51.210;2.934;2022-12-18T04:23:38;-3.80;99.90
18733;DHT22;9495;51.210;2.934;2022-12-18T04:26:08;-3.80;99.90
18733;DHT22;9495;51.210;2.934;2022-12-18T04:28:36;-3.80;99.90
18733;DHT22;9495;51.210;2.934;2022-12-18T04:31:06;-3.70;99.90
18733;DHT22;9495;51.210;2.934;2022-12-18T04:33:34;-3.70;99.90
18733;DHT22;9495;51.210;2.934;2022-12-18T04:36:04;-3.70;99.90
18733;DHT22;9495;51.210;2.934;2022-12-18T04:38:33;-3.70;99.90
18733;DHT22;9495;51.210;2.934;2022-12-18T04:41:01;-3.60;99.90
18733;DHT22;9495;51.210;2.934;2022-12-18T04:43:30;-3.60;99.90
18733;DHT22;9495;51.210;2.934;2022-12-18T04:46:03;-3.50;99.90
18733;DHT22;9495;51.210;2.934;2022-12-18T04:48:34;-3.50;99.90
18733;DHT22;9495;51.210;2.934;2022-12-18T04:51:03;-3.60;99.90
18733;DHT22;9495;51.210;2.934;2022-12-18T04:53:32;-3.60;99.90
18733;DHT22;9495;51.210;2.934;2022-12-18T04:56:06;-3.50;99.90
18733;DHT22;9495;51.210;2.934;2022-12-18T04:58:35;-3.50;99.90
18733;DHT22;9495;51.210;2.934;2022-12-18T05:01:03;-3.50;99.90
18733;DHT22;9495;51.210;2.934;2022-12-18T05:03:33;-3.50;99.90
18733;DHT22;9495;51.210;2.934;2022-12-18T05:06:03;-3.50;99.90
18733;DHT22;9495;51.210;2.934;2022-12-18T05:08:32;-3.60;99.90
18733;DHT22;9495;51.210;2.934;2022-12-18T05:11:01;-3.60;99.90
18733;DHT22;9495;51.210;2.934;2022-12-18T05:13:32;-3.70;99.90
18733;DHT22;9495;51.210;2.934;2022-12-18T05:16:00;-3.70;99.90
18733;DHT22;9495;51.210;2.934;2022-12-18T05:18:29;-3.70;99.90
18733;DHT22;9495;51.210;2.934;2022-12-18T05:20:59;-3.70;99.90
18733;DHT22;9495;51.210;2.934;2022-12-18T05:23:28;-3.70;99.90
18733;DHT22;9495;51.210;2.934;2022-12-18T05:25:58;-3.70;99.90
18733;DHT22;9495;51.210;2.934;2022-12-18T05:28:28;-3.70;99.90
18733;DHT22;9495;51.210;2.934;2022-12-18T05:30:58;-3.70;99.90
18733;DHT22;9495;51.210;2.934;2022-12-18T05:33:30;-3.70;99.90
18733;DHT22;9495;51.210;2.934;2022-12-18T05:36:01;-3.80;99.90
18733;DHT22;9495;51.210;2.934;2022-12-18T05:38:30;-3.70;99.90
18733;DHT22;9495;51.210;2.934;2022-12-18T05:40:59;-3.70;99.90
18733;DHT22;9495;51.210;2.934;2022-12-18T05:43:29;-3.70;99.90
18733;DHT22;9495;51.210;2.934;2022-12-18T05:45:58;-3.70;99.90
18733;DHT22;9495;51.210;2.934;2022-12-18T05:48:31;-3.80;99.90
18733;DHT22;9495;51.210;2.934;2022-12-18T05:51:06;-3.70;99.90
18733;DHT22;9495;51.210;2.934;2022-12-18T05:53:36;-3.80;99.90
18733;DHT22;9495;51.210;2.934;2022-12-18T05:56:07;-3.90;99.90
18733;DHT22;9495;51.210;2.934;2022-12-18T05:58:36;-3.80;99.90
18733;DHT22;9495;51.210;2.934;2022-12-18T06:01:09;-3.80;99.90
18733;DHT22;9495;51.210;2.934;2022-12-18T06:03:38;-3.80;99.90
18733;DHT22;9495;51.210;2.934;2022-12-18T06:06:14;-3.80;99.90
18733;DHT22;9495;51.210;2.934;2022-12-18T06:08:44;-3.80;99.90
18733;DHT22;9495;51.210;2.934;2022-12-18T06:11:13;-3.80;99.90
18733;DHT22;9495;51.210;2.934;2022-12-18T06:13:44;-3.90;99.90
18733;DHT22;9495;51.210;2.934;2022-12-18T06:16:12;-3.90;99.90
18733;DHT22;9495;51.210;2.934;2022-12-18T06:18:41;-3.90;99.90
18733;DHT22;9495;51.210;2.934;2022-12-18T06:21:09;-3.90;99.90
18733;DHT22;9495;51.210;2.934;2022-12-18T06:23:39;-4.00;99.90
18733;DHT22;9495;51.210;2.934;2022-12-18T06:26:10;-4.00;99.90
18733;DHT22;9495;51.210;2.934;2022-12-18T06:28:39;-4.00;99.90
18733;DHT22;9495;51.210;2.934;2022-12-18T06:31:08;-4.00;99.90
18733;DHT22;9495;51.210;2.934;2022-12-18T06:33:37;-3.90;99.90
18733;DHT22;9495;51.210;2.934;2022-12-18T06:36:08;-3.90;99.90
18733;DHT22;9495;51.210;2.934;2022-12-18T06:38:39;-3.90;99.90
18733;DHT22;9495;51.210;2.934;2022-12-18T06:41:09;-3.80;99.90
18733;DHT22;9495;51.210;2.934;2022-12-18T06:43:38;-3.70;99.90
18733;DHT22;9495;51.210;2.934;2022-12-18T06:46:07;-3.70;99.90
18733;DHT22;9495;51.210;2.934;2022-12-18T06:48:35;-3.70;99.90
18733;DHT22;9495;51.210;2.934;2022-12-18T06:51:04;-3.60;99.90
18733;DHT22;9495;51.210;2.934;2022-12-18T06:53:33;-3.60;99.90
18733;DHT22;9495;51.210;2.934;2022-12-18T06:56:04;-3.60;99.90
18733;DHT22;9495;51.210;2.934;2022-12-18T06:58:36;-3.60;99.90
18733;DHT22;9495;51.210;2.934;2022-12-18T07:01:07;-3.50;99.90
18733;DHT22;9495;51.210;2.934;2022-12-18T07:03:36;-3.50;99.90
18733;DHT22;9495;51.210;2.934;2022-12-18T07:06:05;-3.50;99.90
18733;DHT22;9495;51.210;2.934;2022-12-18T07:08:34;-3.40;99.90
18733;DHT22;9495;51.210;2.934;2022-12-18T07:11:05;-3.40;99.90
18733;DHT22;9495;51.210;2.934;2022-12-18T07:13:33;-3.40;99.90
18733;DHT22;9495;51.210;2.934;2022-12-18T07:16:06;-3.40;99.90
18733;DHT22;9495;51.210;2.934;2022-12-18T07:18:44;-3.40;99.90
18733;DHT22;9495;51.210;2.934;2022-12-18T07:21:14;-3.40;99.90
18733;DHT22;9495;51.210;2.934;2022-12-18T07:23:43;-3.40;99.90
18733;DHT22;9495;51.210;2.934;2022-12-18T07:26:18;-3.40;99.90
18733;DHT22;9495;51.210;2.934;2022-12-18T07:28:46;-3.50;99.90
18733;DHT22;9495;51.210;2.934;2022-12-18T07:31:16;-3.50;99.90
18733;DHT22;9495;51.210;2.934;2022-12-18T07:33:45;-3.50;99.90
18733;DHT22;9495;51.210;2.934;2022-12-18T07:36:14;-3.50;99.90
18733;DHT22;9495;51.210;2.934;2022-12-18T07:38:42;-3.40;99.90
18733;DHT22;9495;51.210;2.934;2022-12-18T07:41:12;-3.40;99.90
18733;DHT22;9495;51.210;2.934;2022-12-18T07:43:42;-3.40;99.90
18733;DHT22;9495;51.210;2.934;2022-12-18T07:46:12;-3.40;99.90
18733;DHT22;9495;51.210;2.934;2022-12-18T07:48:41;-3.40;99.90
18733;DHT22;9495;51.210;2.934;2022-12-18T07:51:16;-3.40;99.90
18733;DHT22;9495;51.210;2.934;2022-12-18T07:53:45;-3.40;99.90
18733;DHT22;9495;51.210;2.934;2022-12-18T07:56:19;-3.30;99.90
18733;DHT22;9495;51.210;2.934;2022-12-18T07:58:55;-3.30;99.90
18733;DHT22;9495;51.210;2.934;2022-12-18T08:01:24;-3.30;99.90
18733;DHT22;9495;51.210;2.934;2022-12-18T08:03:53;-3.30;99.90
18733;DHT22;9495;51.210;2.934;2022-12-18T08:06:21;-3.30;99.90
18733;DHT22;9495;51.210;2.934;2022-12-18T08:08:51;-3.30;99.90
18733;DHT22;9495;51.210;2.934;2022-12-18T08:11:20;-3.30;99.90
18733;DHT22;9495;51.210;2.934;2022-12-18T08:13:49;-3.20;99.90
18733;DHT22;9495;51.210;2.934;2022-12-18T08:16:19;-3.20;99.90
18733;DHT22;9495;51.210;2.934;2022-12-18T08:18:48;-3.10;99.90
18733;DHT22;9495;51.210;2.934;2022-12-18T08:21:19;-3.00;99.90
18733;DHT22;9495;51.210;2.934;2022-12-18T08:23:50;-2.90;99.90
18733;DHT22;9495;51.210;2.934;2022-12-18T08:26:19;-2.90;99.90
18733;DHT22;9495;51.210;2.934;2022-12-18T08:28:49;-2.80;99.90
18733;DHT22;9495;51.210;2.934;2022-12-18T08:31:19;-2.70;99.90
18733;DHT22;9495;51.210;2.934;2022-12-18T08:33:49;-2.70;99.90
18733;DHT22;9495;51.210;2.934;2022-12-18T08:36:18;-2.70;99.90
18733;DHT22;9495;51.210;2.934;2022-12-18T08:38:47;-2.30;99.90
18733;DHT22;9495;51.210;2.934;2022-12-18T08:41:16;-2.50;99.90
18733;DHT22;9495;51.210;2.934;2022-12-18T08:43:45;-2.40;99.90
18733;DHT22;9495;51.210;2.934;2022-12-18T08:46:37;-2.50;99.90
18733;DHT22;9495;51.210;2.934;2022-12-18T08:49:07;-2.30;99.90
18733;DHT22;9495;51.210;2.934;2022-12-18T08:51:35;-2.50;99.90
18733;DHT22;9495;51.210;2.934;2022-12-18T08:54:04;-2.40;99.90
18733;DHT22;9495;51.210;2.934;2022-12-18T08:56:33;-2.40;99.90
18733;DHT22;9495;51.210;2.934;2022-12-18T08:59:01;-2.40;99.90
18733;DHT22;9495;51.210;2.934;2022-12-18T09:01:31;-2.50;99.90
18733;DHT22;9495;51.210;2.934;2022-12-18T09:04:02;-2.40;99.90
18733;DHT22;9495;51.210;2.934;2022-12-18T09:06:33;-2.40;99.90
18733;DHT22;9495;51.210;2.934;2022-12-18T09:09:04;-2.40;99.90
18733;DHT22;9495;51.210;2.934;2022-12-18T09:11:33;-2.40;99.90
18733;DHT22;9495;51.210;2.934;2022-12-18T09:14:02;-2.30;99.90
18733;DHT22;9495;51.210;2.934;2022-12-18T09:16:31;-2.40;99.90
18733;DHT22;9495;51.210;2.934;2022-12-18T09:19:04;-1.90;99.90
18733;DHT22;9495;51.210;2.934;2022-12-18T09:21:34;-2.10;99.90
18733;DHT22;9495;51.210;2.934;2022-12-18T09:24:14;-2.10;99.90
18733;DHT22;9495;51.210;2.934;2022-12-18T09:26:42;-2.20;99.90
18733;DHT22;9495;51.210;2.934;2022-12-18T09:29:13;-2.10;99.90
18733;DHT22;9495;51.210;2.934;2022-12-18T09:31:44;-1.80;99.90
18733;DHT22;9495;51.210;2.934;2022-12-18T09:34:14;-1.50;99.90
18733;DHT22;9495;51.210;2.934;2022-12-18T09:36:43;-1.90;99.90
18733;DHT22;9495;51.210;2.934;2022-12-18T09:39:13;-1.80;99.90
18733;DHT22;9495;51.210;2.934;2022-12-18T09:41:45;-1.70;99.90
18733;DHT22;9495;51.210;2.934;2022-12-18T09:44:21;-1.00;99.90
18733;DHT22;9495;51.210;2.934;2022-12-18T09:46:55;-1.00;99.90
18733;DHT22;9495;51.210;2.934;2022-12-18T09:49:30;-0.90;99.90
18733;DHT22;9495;51.210;2.934;2022-12-18T09:52:03;-1.00;99.90
18733;DHT22;9495;51.210;2.934;2022-12-18T09:54:35;-1.20;99.90
18733;DHT22;9495;51.210;2.934;2022-12-18T09:57:04;-0.70;99.90
18733;DHT22;9495;51.210;2.934;2022-12-18T09:59:36;-1.00;99.90
18733;DHT22;9495;51.210;2.934;2022-12-18T10:02:15;-0.50;99.90
18733;DHT22;9495;51.210;2.934;2022-12-18T10:04:50;-0.50;99.90
18733;DHT22;9495;51.210;2.934;2022-12-18T10:07:27;-0.20;99.90
18733;DHT22;9495;51.210;2.934;2022-12-18T10:10:03;0.50;99.90
18733;DHT22;9495;51.210;2.934;2022-12-18T10:12:38;0.10;99.90
18733;DHT22;9495;51.210;2.934;2022-12-18T10:15:15;0.80;99.90
18733;DHT22;9495;51.210;2.934;2022-12-18T10:17:53;-0.30;99.90
18733;DHT22;9495;51.210;2.934;2022-12-18T10:20:32;-0.80;99.90
18733;DHT22;9495;51.210;2.934;2022-12-18T10:23:05;0.10;99.90
18733;DHT22;9495;51.210;2.934;2022-12-18T10:25:41;-0.60;99.90
18733;DHT22;9495;51.210;2.934;2022-12-18T10:28:16;-0.80;99.90
18733;DHT22;9495;51.210;2.934;2022-12-18T10:30:45;-0.60;99.90
18733;DHT22;9495;51.210;2.934;2022-12-18T10:33:15;-0.20;99.90
18733;DHT22;9495;51.210;2.934;2022-12-18T10:35:47;0.00;99.90
18733;DHT22;9495;51.210;2.934;2022-12-18T10:38:24;0.00;99.90
18733;DHT22;9495;51.210;2.934;2022-12-18T10:40:55;0.70;99.90
18733;DHT22;9495;51.210;2.934;2022-12-18T10:43:25;1.90;99.90
18733;DHT22;9495;51.210;2.934;2022-12-18T10:45:59;0.40;99.90
18733;DHT22;9495;51.210;2.934;2022-12-18T10:48:29;-0.10;99.90
18733;DHT22;9495;51.210;2.934;2022-12-18T10:51:00;-0.10;99.90
18733;DHT22;9495;51.210;2.934;2022-12-18T10:53:40;-0.30;99.90
18733;DHT22;9495;51.210;2.934;2022-12-18T10:56:10;0.20;99.90
18733;DHT22;9495;51.210;2.934;2022-12-18T10:58:39;-0.20;99.90
18733;DHT22;9495;51.210;2.934;2022-12-18T11:01:10;-0.20;99.90
18733;DHT22;9495;51.210;2.934;2022-12-18T11:03:41;1.10;99.90
18733;DHT22;9495;51.210;2.934;2022-12-18T11:06:13;1.80;99.90
18733;DHT22;9495;51.210;2.934;2022-12-18T11:08:42;1.40;99.90
18733;DHT22;9495;51.210;2.934;2022-12-18T11:11:21;1.40;99.90
18733;DHT22;9495;51.210;2.934;2022-12-18T11:14:00;0.60;99.90
18733;DHT22;9495;51.210;2.934;2022-12-18T11:16:31;0.80;99.90
18733;DHT22;9495;51.210;2.934;2022-12-18T11:19:32;0.90;99.90
18733;DHT22;9495;51.210;2.934;2022-12-18T11:22:17;0.70;99.90
18733;DHT22;9495;51.210;2.934;2022-12-18T11:24:53;1.10;99.90
18733;DHT22;9495;51.210;2.934;2022-12-18T11:27:47;1.80;99.90
18733;DHT22;9495;51.210;2.934;2022-12-18T11:30:22;1.00;99.90
18733;DHT22;9495;51.210;2.934;2022-12-18T11:32:53;1.20;99.90
18733;DHT22;9495;51.210;2.934;2022-12-18T11:35:30;0.90;99.90
18733;DHT22;9495;51.210;2.934;2022-12-18T11:38:06;0.70;99.90
18733;DHT22;9495;51.210;2.934;2022-12-18T11:40:41;0.90;99.90
18733;DHT22;9495;51.210;2.934;2022-12-18T11:43:13;1.00;99.90
18733;DHT22;9495;51.210;2.934;2022-12-18T11:45:49;0.80;99.90
18733;DHT22;9495;51.210;2.934;2022-12-18T11:48:22;1.30;99.90
18733;DHT22;9495;51.210;2.934;2022-12-18T11:50:52;1.60;99.90
18733;DHT22;9495;51.210;2.934;2022-12-18T11:53:24;0.90;99.90
18733;DHT22;9495;51.210;2.934;2022-12-18T11:56:07;0.30;99.90
18733;DHT22;9495;51.210;2.934;2022-12-18T11:58:50;1.40;99.90
18733;DHT22;9495;51.210;2.934;2022-12-18T12:01:33;1.60;99.90
18733;DHT22;9495;51.210;2.934;2022-12-18T12:04:32;1.50;99.90
18733;DHT22;9495;51.210;2.934;2022-12-18T12:07:07;0.80;99.90
18733;DHT22;9495;51.210;2.934;2022-12-18T12:09:44;0.60;99.90
18733;DHT22;9495;51.210;2.934;2022-12-18T12:12:27;0.30;99.90
18733;DHT22;9495;51.210;2.934;2022-12-18T12:15:24;0.60;99.90
18733;DHT22;9495;51.210;2.934;2022-12-18T12:18:01;0.60;99.90
18733;DHT22;9495;51.210;2.934;2022-12-18T12:20:46;1.00;99.90
18733;DHT22;9495;51.210;2.934;2022-12-18T12:23:22;1.50;99.90
18733;DHT22;9495;51.210;2.934;2022-12-18T12:25:59;0.80;99.90
18733;DHT22;9495;51.210;2.934;2022-12-18T12:28:49;0.80;99.90
18733;DHT22;9495;51.210;2.934;2022-12-18T12:31:28;0.70;99.90
18733;DHT22;9495;51.210;2.934;2022-12-18T12:34:06;0.50;99.90
18733;DHT22;9495;51.210;2.934;2022-12-18T12:36:41;0.80;99.90
18733;DHT22;9495;51.210;2.934;2022-12-18T12:39:16;0.80;99.90
18733;DHT22;9495;51.210;2.934;2022-12-18T12:41:47;1.20;99.90
18733;DHT22;9495;51.210;2.934;2022-12-18T12:44:45;0.80;99.90
18733;DHT22;9495;51.210;2.934;2022-12-18T12:47:25;1.40;99.90
18733;DHT22;9495;51.210;2.934;2022-12-18T12:49:56;1.40;99.90
18733;DHT22;9495;51.210;2.934;2022-12-18T12:52:30;1.30;99.90
18733;DHT22;9495;51.210;2.934;2022-12-18T12:55:00;1.10;99.90
18733;DHT22;9495;51.210;2.934;2022-12-18T12:57:34;1.20;99.90
18733;DHT22;9495;51.210;2.934;2022-12-18T13:00:09;0.70;99.90
18733;DHT22;9495;51.210;2.934;2022-12-18T13:02:44;0.80;99.90
18733;DHT22;9495;51.210;2.934;2022-12-18T13:05:21;0.50;99.90
18733;DHT22;9495;51.210;2.934;2022-12-18T13:07:55;0.80;99.90
18733;DHT22;9495;51.210;2.934;2022-12-18T13:10:31;0.50;99.90
18733;DHT22;9495;51.210;2.934;2022-12-18T13:13:03;0.40;99.90
18733;DHT22;9495;51.210;2.934;2022-12-18T13:15:37;0.30;99.90
18733;DHT22;9495;51.210;2.934;2022-12-18T13:18:15;0.90;99.90
18733;DHT22;9495;51.210;2.934;2022-12-18T13:20:46;0.80;99.90
18733;DHT22;9495;51.210;2.934;2022-12-18T13:23:33;0.60;99.90
18733;DHT22;9495;51.210;2.934;2022-12-18T13:26:29;1.80;99.90
18733;DHT22;9495;51.210;2.934;2022-12-18T13:29:00;1.50;99.90
18733;DHT22;9495;51.210;2.934;2022-12-18T13:34:29;1.60;99.90
18733;DHT22;9495;51.210;2.934;2022-12-18T13:43:28;2.00;99.90
18733;DHT22;9495;51.210;2.934;2022-12-18T13:48:57;3.50;99.90
18733;DHT22;9495;51.210;2.934;2022-12-18T13:51:28;4.10;99.90
18733;DHT22;9495;51.210;2.934;2022-12-18T13:53:59;2.80;99.90
18733;DHT22;9495;51.210;2.934;2022-12-18T13:56:30;2.70;99.90
18733;DHT22;9495;51.210;2.934;2022-12-18T13:59:16;3.20;99.90
18733;DHT22;9495;51.210;2.934;2022-12-18T14:01:52;4.70;99.90
18733;DHT22;9495;51.210;2.934;2022-12-18T14:04:26;3.20;99.90
18733;DHT22;9495;51.210;2.934;2022-12-18T14:06:57;3.80;99.90
18733;DHT22;9495;51.210;2.934;2022-12-18T14:09:31;4.70;99.90
18733;DHT22;9495;51.210;2.934;2022-12-18T14:12:03;4.90;99.90
18733;DHT22;9495;51.210;2.934;2022-12-18T14:14:51;3.10;99.90
18733;DHT22;9495;51.210;2.934;2022-12-18T14:17:23;2.60;99.90
18733;DHT22;9495;51.210;2.934;2022-12-18T14:19:52;2.80;99.90
18733;DHT22;9495;51.210;2.934;2022-12-18T14:22:21;2.60;99.90
18733;DHT22;9495;51.210;2.934;2022-12-18T14:25:13;3.00;99.90
18733;DHT22;9495;51.210;2.934;2022-12-18T14:27:44;4.10;99.90
18733;DHT22;9495;51.210;2.934;2022-12-18T14:30:29;3.30;99.90
18733;DHT22;9495;51.210;2.934;2022-12-18T14:33:04;3.20;99.90
18733;DHT22;9495;51.210;2.934;2022-12-18T14:35:33;2.00;99.90
18733;DHT22;9495;51.210;2.934;2022-12-18T14:38:20;2.80;99.90
18733;DHT22;9495;51.210;2.934;2022-12-18T14:40:52;1.90;99.90
18733;DHT22;9495;51.210;2.934;2022-12-18T14:43:21;2.10;99.90
18733;DHT22;9495;51.210;2.934;2022-12-18T14:45:50;2.10;99.90
18733;DHT22;9495;51.210;2.934;2022-12-18T14:48:22;2.60;99.90
18733;DHT22;9495;51.210;2.934;2022-12-18T14:50:59;2.30;99.90
18733;DHT22;9495;51.210;2.934;2022-12-18T14:53:33;2.90;99.90
18733;DHT22;9495;51.210;2.934;2022-12-18T14:56:03;2.90;99.90
18733;DHT22;9495;51.210;2.934;2022-12-18T14:58:32;2.90;99.90
18733;DHT22;9495;51.210;2.934;2022-12-18T15:01:00;2.00;99.90
18733;DHT22;9495;51.210;2.934;2022-12-18T15:03:30;3.00;99.90
18733;DHT22;9495;51.210;2.934;2022-12-18T15:06:15;2.50;99.90
18733;DHT22;9495;51.210;2.934;2022-12-18T15:08:44;2.10;99.90
18733;DHT22;9495;51.210;2.934;2022-12-18T15:11:32;1.70;99.90
18733;DHT22;9495;51.210;2.934;2022-12-18T15:14:22;1.60;99.90
18733;DHT22;9495;51.210;2.934;2022-12-18T15:16:52;2.00;99.90
18733;DHT22;9495;51.210;2.934;2022-12-18T15:19:32;2.20;99.90
18733;DHT22;9495;51.210;2.934;2022-12-18T15:22:01;2.20;99.90
18733;DHT22;9495;51.210;2.934;2022-12-18T15:24:32;2.60;99.90
18733;DHT22;9495;51.210;2.934;2022-12-18T15:27:01;3.70;99.90
18733;DHT22;9495;51.210;2.934;2022-12-18T15:29:30;4.00;99.90
18733;DHT22;9495;51.210;2.934;2022-12-18T15:32:00;3.30;99.90
18733;DHT22;9495;51.210;2.934;2022-12-18T15:34:30;3.40;99.90
18733;DHT22;9495;51.210;2.934;2022-12-18T15:36:59;2.40;99.90
18733;DHT22;9495;51.210;2.934;2022-12-18T15:39:27;2.40;99.90
18733;DHT22;9495;51.210;2.934;2022-12-18T15:41:56;2.80;99.90
18733;DHT22;9495;51.210;2.934;2022-12-18T15:44:57;2.00;99.90
18733;DHT22;9495;51.210;2.934;2022-12-18T15:47:25;2.70;99.90
18733;DHT22;9495;51.210;2.934;2022-12-18T15:49:56;2.00;99.90
18733;DHT22;9495;51.210;2.934;2022-12-18T15:52:25;1.80;99.90
18733;DHT22;9495;51.210;2.934;2022-12-18T15:54:53;2.00;99.90
18733;DHT22;9495;51.210;2.934;2022-12-18T15:57:39;1.90;99.90
18733;DHT22;9495;51.210;2.934;2022-12-18T16:00:12;1.70;99.90
18733;DHT22;9495;51.210;2.934;2022-12-18T16:02:41;2.10;99.90
18733;DHT22;9495;51.210;2.934;2022-12-18T16:05:15;2.00;99.90
18733;DHT22;9495;51.210;2.934;2022-12-18T16:07:44;1.80;99.90
18733;DHT22;9495;51.210;2.934;2022-12-18T16:10:12;2.90;99.90
18733;DHT22;9495;51.210;2.934;2022-12-18T16:12:41;3.20;99.90
18733;DHT22;9495;51.210;2.934;2022-12-18T16:15:11;2.80;99.90
18733;DHT22;9495;51.210;2.934;2022-12-18T16:17:43;2.40;99.90
18733;DHT22;9495;51.210;2.934;2022-12-18T16:20:15;2.30;99.90
18733;DHT22;9495;51.210;2.934;2022-12-18T16:22:45;2.60;99.90
18733;DHT22;9495;51.210;2.934;2022-12-18T16:25:20;2.50;99.90
18733;DHT22;9495;51.210;2.934;2022-12-18T16:27:50;2.80;99.90
18733;DHT22;9495;51.210;2.934;2022-12-18T16:30:20;3.20;99.90
18733;DHT22;9495;51.210;2.934;2022-12-18T16:32:49;2.50;99.90
18733;DHT22;9495;51.210;2.934;2022-12-18T16:35:19;3.00;99.90
18733;DHT22;9495;51.210;2.934;2022-12-18T16:37:47;4.20;99.90
18733;DHT22;9495;51.210;2.934;2022-12-18T16:40:17;3.10;99.90